sensor_id;sensor_type;location;lat;lon;timestamp;temperature;humidity
26378;DHT22;14078;50.974;6.786;2023-08-17T00:01:51;19.10;99.90
26378;DHT22;14078;50.974;6.786;2023-08-17T00:04:19;19.10;99.90
26378;DHT22;14078;50.974;6.786;2023-08-17T00:06:46;19.10;99.90
26378;DHT22;14078;50.974;6.786;2023-08-17T00:09:12;19.10;99.90
26378;DHT22;14078;50.974;6.786;2023-08-17T00:11:39;19.10;99.90
26378;DHT22;14078;50.974;6.786;2023-08-17T00:14:05;19.10;99.90
26378;DHT22;14078;50.974;6.786;2023-08-17T00:16:32;19.00;99.90
26378;DHT22;14078;50.974;6.786;2023-08-17T00:18:58;19.00;99.90
26378;DHT22;14078;50.974;6.786;2023-08-17T00:21:26;19.00;99.90
26378;DHT22;14078;50.974;6.786;2023-08-17T00:23:53;18.90;99.90
26378;DHT22;14078;50.974;6.786;2023-08-17T00:26:19;18.90;99.90
26378;DHT22;14078;50.974;6.786;2023-08-17T00:28:46;18.90;99.90
26378;DHT22;14078;50.974;6.786;2023-08-17T00:31:12;18.80;99.90
26378;DHT22;14078;50.974;6.786;2023-08-17T00:33:39;18.80;99.90
26378;DHT22;14078;50.974;6.786;2023-08-17T00:36:05;18.70;99.90
26378;DHT22;14078;50.974;6.786;2023-08-17T00:38:33;18.70;99.90
26378;DHT22;14078;50.974;6.786;2023-08-17T00:41:00;18.70;99.90
26378;DHT22;14078;50.974;6.786;2023-08-17T00:43:26;18.70;99.90
26378;DHT22;14078;50.974;6.786;2023-08-17T00:45:53;18.70;99.90
26378;DHT22;14078;50.974;6.786;2023-08-17T00:48:20;18.70;99.90
26378;DHT22;14078;50.974;6.786;2023-08-17T00:50:47;18.70;99.90
26378;DHT22;14078;50.974;6.786;2023-08-17T00:53:13;18.60;99.90
26378;DHT22;14078;50.974;6.786;2023-08-17T00:55:42;18.60;99.90
26378;DHT22;14078;50.974;6.786;2023-08-17T00:58:09;18.60;99.90
26378;DHT22;14078;50.974;6.786;2023-08-17T01:00:36;18.60;99.90
26378;DHT22;14078;50.974;6.786;2023-08-17T01:03:02;18.60;99.90
26378;DHT22;14078;50.974;6.786;2023-08-17T01:05:29;18.60;99.90
26378;DHT22;14078;50.974;6.786;2023-08-17T01:07:56;18.60;99.90
26378;DHT22;14078;50.974;6.786;2023-08-17T01:10:23;18.50;99.90
26378;DHT22;14078;50.974;6.786;2023-08-17T01:12:55;18.50;99.90
26378;DHT22;14078;50.974;6.786;2023-08-17T01:15:23;18.50;99.90
26378;DHT22;14078;50.974;6.786;2023-08-17T01:17:52;18.40;99.90
26378;DHT22;14078;50.974;6.786;2023-08-17T01:20:20;18.40;99.90
26378;DHT22;14078;50.974;6.786;2023-08-17T01:22:49;18.40;99.90
26378;DHT22;14078;50.974;6.786;2023-08-17T01:25:17;18.40;99.90
26378;DHT22;14078;50.974;6.786;2023-08-17T01:27:44;18.40;99.90
26378;DHT22;14078;50.974;6.786;2023-08-17T01:30:12;18.40;99.90
26378;DHT22;14078;50.974;6.786;2023-08-17T01:32:41;18.40;99.90
26378;DHT22;14078;50.974;6.786;2023-08-17T01:35:11;18.40;99.90
26378;DHT22;14078;50.974;6.786;2023-08-17T01:37:40;18.40;99.90
26378;DHT22;14078;50.974;6.786;2023-08-17T01:40:08;18.40;99.90
26378;DHT22;14078;50.974;6.786;2023-08-17T01:42:36;18.40;99.90
26378;DHT22;14078;50.974;6.786;2023-08-17T01:45:05;18.40;99.90
26378;DHT22;14078;50.974;6.786;2023-08-17T01:47:31;18.40;99.90
26378;DHT22;14078;50.974;6.786;2023-08-17T01:49:58;18.40;99.90
26378;DHT22;14078;50.974;6.786;2023-08-17T01:52:25;18.30;99.90
26378;DHT22;14078;50.974;6.786;2023-08-17T01:54:52;18.40;99.90
26378;DHT22;14078;50.974;6.786;2023-08-17T01:57:19;18.30;99.90
26378;DHT22;14078;50.974;6.786;2023-08-17T01:59:47;18.40;99.90
26378;DHT22;14078;50.974;6.786;2023-08-17T02:02:13;18.40;99.90
26378;DHT22;14078;50.974;6.786;2023-08-17T02:04:40;18.40;99.90
26378;DHT22;14078;50.974;6.786;2023-08-17T02:07:07;18.50;99.90
26378;DHT22;14078;50.974;6.786;2023-08-17T02:09:33;18.50;99.90
26378;DHT22;14078;50.974;6.786;2023-08-17T02:12:00;18.50;99.90
26378;DHT22;14078;50.974;6.786;2023-08-17T02:14:26;18.40;99.90
26378;DHT22;14078;50.974;6.786;2023-08-17T02:16:54;18.50;99.90
26378;DHT22;14078;50.974;6.786;2023-08-17T02:19:21;18.50;99.90
26378;DHT22;14078;50.974;6.786;2023-08-17T02:21:47;18.50;99.90
26378;DHT22;14078;50.974;6.786;2023-08-17T02:24:14;18.50;99.90
26378;DHT22;14078;50.974;6.786;2023-08-17T02:26:40;18.40;99.90
26378;DHT22;14078;50.974;6.786;2023-08-17T02:29:07;18.40;99.90
26378;DHT22;14078;50.974;6.786;2023-08-17T02:31:33;18.40;99.90
26378;DHT22;14078;50.974;6.786;2023-08-17T02:34:01;18.50;99.90
26378;DHT22;14078;50.974;6.786;2023-08-17T02:36:30;18.50;99.90
26378;DHT22;14078;50.974;6.786;2023-08-17T02:38:57;18.50;99.90
26378;DHT22;14078;50.974;6.786;2023-08-17T02:41:23;18.50;99.90
26378;DHT22;14078;50.974;6.786;2023-08-17T02:43:49;18.50;99.90
26378;DHT22;14078;50.974;6.786;2023-08-17T02:46:16;18.60;99.90
26378;DHT22;14078;50.974;6.786;2023-08-17T02:48:42;18.50;99.90
26378;DHT22;14078;50.974;6.786;2023-08-17T02:51:10;18.70;99.90
26378;DHT22;14078;50.974;6.786;2023-08-17T02:53:37;18.70;99.90
26378;DHT22;14078;50.974;6.786;2023-08-17T02:56:03;18.60;99.90
26378;DHT22;14078;50.974;6.786;2023-08-17T02:58:30;18.70;99.90
26378;DHT22;14078;50.974;6.786;2023-08-17T03:00:56;18.60;99.90
26378;DHT22;14078;50.974;6.786;2023-08-17T03:03:23;18.60;99.90
26378;DHT22;14078;50.974;6.786;2023-08-17T03:05:49;18.70;99.90
26378;DHT22;14078;50.974;6.786;2023-08-17T03:08:17;18.60;99.90
26378;DHT22;14078;50.974;6.786;2023-08-17T03:10:44;18.60;99.90
26378;DHT22;14078;50.974;6.786;2023-08-17T03:13:10;18.60;99.90
26378;DHT22;14078;50.974;6.786;2023-08-17T03:15:37;18.60;99.90
26378;DHT22;14078;50.974;6.786;2023-08-17T03:18:05;18.60;99.90
26378;DHT22;14078;50.974;6.786;2023-08-17T03:20:31;18.50;99.90
26378;DHT22;14078;50.974;6.786;2023-08-17T03:22:58;18.50;99.90
26378;DHT22;14078;50.974;6.786;2023-08-17T03:25:26;18.50;99.90
26378;DHT22;14078;50.974;6.786;2023-08-17T03:27:52;18.50;99.90
26378;DHT22;14078;50.974;6.786;2023-08-17T03:30:19;18.50;99.90
26378;DHT22;14078;50.974;6.786;2023-08-17T03:32:45;18.40;99.90
26378;DHT22;14078;50.974;6.786;2023-08-17T03:35:12;18.40;99.90
26378;DHT22;14078;50.974;6.786;2023-08-17T03:37:39;18.40;99.90
26378;DHT22;14078;50.974;6.786;2023-08-17T03:40:06;18.30;99.90
26378;DHT22;14078;50.974;6.786;2023-08-17T03:42:34;18.30;99.90
26378;DHT22;14078;50.974;6.786;2023-08-17T03:45:00;18.30;99.90
26378;DHT22;14078;50.974;6.786;2023-08-17T03:47:27;18.30;99.90
26378;DHT22;14078;50.974;6.786;2023-08-17T03:49:53;18.30;99.90
26378;DHT22;14078;50.974;6.786;2023-08-17T03:52:20;18.20;99.90
26378;DHT22;14078;50.974;6.786;2023-08-17T03:54:47;18.20;99.90
26378;DHT22;14078;50.974;6.786;2023-08-17T03:57:13;18.20;99.90
26378;DHT22;14078;50.974;6.786;2023-08-17T03:59:41;18.20;99.90
26378;DHT22;14078;50.974;6.786;2023-08-17T04:02:07;18.20;99.90
26378;DHT22;14078;50.974;6.786;2023-08-17T04:04:34;18.30;99.90
26378;DHT22;14078;50.974;6.786;2023-08-17T04:07:00;18.20;99.90
26378;DHT22;14078;50.974;6.786;2023-08-17T04:09:27;18.20;99.90
26378;DHT22;14078;50.974;6.786;2023-08-17T04:11:53;18.10;99.90
26378;DHT22;14078;50.974;6.786;2023-08-17T04:14:22;18.10;99.90
26378;DHT22;14078;50.974;6.786;2023-08-17T04:16:50;18.10;99.90
26378;DHT22;14078;50.974;6.786;2023-08-17T04:19:17;18.10;99.90
26378;DHT22;14078;50.974;6.786;2023-08-17T04:21:43;18.10;99.90
26378;DHT22;14078;50.974;6.786;2023-08-17T04:24:10;18.00;99.90
26378;DHT22;14078;50.974;6.786;2023-08-17T04:26:36;18.00;99.90
26378;DHT22;14078;50.974;6.786;2023-08-17T04:29:03;18.00;99.90
26378;DHT22;14078;50.974;6.786;2023-08-17T04:31:30;18.00;99.90
26378;DHT22;14078;50.974;6.786;2023-08-17T04:33:58;18.00;99.90
26378;DHT22;14078;50.974;6.786;2023-08-17T04:36:24;17.90;99.90
26378;DHT22;14078;50.974;6.786;2023-08-17T04:38:51;17.90;99.90
26378;DHT22;14078;50.974;6.786;2023-08-17T04:41:17;17.90;99.90
26378;DHT22;14078;50.974;6.786;2023-08-17T04:43:44;17.90;99.90
26378;DHT22;14078;50.974;6.786;2023-08-17T04:46:12;17.90;99.90
26378;DHT22;14078;50.974;6.786;2023-08-17T04:48:38;17.80;99.90
26378;DHT22;14078;50.974;6.786;2023-08-17T04:51:06;17.90;99.90
26378;DHT22;14078;50.974;6.786;2023-08-17T04:53:32;17.90;99.90
26378;DHT22;14078;50.974;6.786;2023-08-17T04:55:59;17.80;99.90
26378;DHT22;14078;50.974;6.786;2023-08-17T04:58:25;17.80;99.90
26378;DHT22;14078;50.974;6.786;2023-08-17T05:00:52;17.80;99.90
26378;DHT22;14078;50.974;6.786;2023-08-17T05:03:18;17.80;99.90
26378;DHT22;14078;50.974;6.786;2023-08-17T05:05:45;17.80;99.90
26378;DHT22;14078;50.974;6.786;2023-08-17T05:08:13;17.80;99.90
26378;DHT22;14078;50.974;6.786;2023-08-17T05:10:40;17.80;99.90
26378;DHT22;14078;50.974;6.786;2023-08-17T05:13:06;17.80;99.90
26378;DHT22;14078;50.974;6.786;2023-08-17T05:15:33;17.90;99.90
26378;DHT22;14078;50.974;6.786;2023-08-17T05:17:59;17.80;99.90
26378;DHT22;14078;50.974;6.786;2023-08-17T05:20:26;17.90;99.90
26378;DHT22;14078;50.974;6.786;2023-08-17T05:22:52;17.80;99.90
26378;DHT22;14078;50.974;6.786;2023-08-17T05:25:20;17.90;99.90
26378;DHT22;14078;50.974;6.786;2023-08-17T05:27:47;17.90;99.90
26378;DHT22;14078;50.974;6.786;2023-08-17T05:30:14;17.90;99.90
26378;DHT22;14078;50.974;6.786;2023-08-17T05:32:41;17.90;99.90
26378;DHT22;14078;50.974;6.786;2023-08-17T05:35:07;17.90;99.90
26378;DHT22;14078;50.974;6.786;2023-08-17T05:37:34;18.00;99.90
26378;DHT22;14078;50.974;6.786;2023-08-17T05:40:00;18.00;99.90
26378;DHT22;14078;50.974;6.786;2023-08-17T05:42:28;18.00;99.90
26378;DHT22;14078;50.974;6.786;2023-08-17T05:44:54;18.00;99.90
26378;DHT22;14078;50.974;6.786;2023-08-17T05:47:21;18.00;99.90
26378;DHT22;14078;50.974;6.786;2023-08-17T05:49:47;18.00;99.90
26378;DHT22;14078;50.974;6.786;2023-08-17T05:52:14;18.00;99.90
26378;DHT22;14078;50.974;6.786;2023-08-17T05:54:41;18.00;99.90
26378;DHT22;14078;50.974;6.786;2023-08-17T05:57:08;18.00;99.90
26378;DHT22;14078;50.974;6.786;2023-08-17T05:59:36;18.10;99.90
26378;DHT22;14078;50.974;6.786;2023-08-17T06:02:03;18.10;99.90
26378;DHT22;14078;50.974;6.786;2023-08-17T06:04:29;18.10;99.90
26378;DHT22;14078;50.974;6.786;2023-08-17T06:06:56;18.20;99.90
26378;DHT22;14078;50.974;6.786;2023-08-17T06:09:22;18.20;99.90
26378;DHT22;14078;50.974;6.786;2023-08-17T06:11:49;18.30;99.90
26378;DHT22;14078;50.974;6.786;2023-08-17T06:14:16;18.40;99.90
26378;DHT22;14078;50.974;6.786;2023-08-17T06:16:44;18.30;99.90
26378;DHT22;14078;50.974;6.786;2023-08-17T06:19:10;18.30;99.90
26378;DHT22;14078;50.974;6.786;2023-08-17T06:21:37;18.40;99.90
26378;DHT22;14078;50.974;6.786;2023-08-17T06:24:04;18.40;99.90
26378;DHT22;14078;50.974;6.786;2023-08-17T06:26:30;18.50;99.90
26378;DHT22;14078;50.974;6.786;2023-08-17T06:28:57;18.50;99.90
26378;DHT22;14078;50.974;6.786;2023-08-17T06:31:23;18.60;99.90
26378;DHT22;14078;50.974;6.786;2023-08-17T06:33:54;18.60;99.90
26378;DHT22;14078;50.974;6.786;2023-08-17T06:36:20;18.60;99.90
26378;DHT22;14078;50.974;6.786;2023-08-17T06:38:47;18.70;99.90
26378;DHT22;14078;50.974;6.786;2023-08-17T06:41:13;18.70;99.90
26378;DHT22;14078;50.974;6.786;2023-08-17T06:43:40;18.70;99.90
26378;DHT22;14078;50.974;6.786;2023-08-17T06:46:06;18.80;99.90
26378;DHT22;14078;50.974;6.786;2023-08-17T06:48:33;18.80;99.90
26378;DHT22;14078;50.974;6.786;2023-08-17T06:51:01;18.70;99.90
26378;DHT22;14078;50.974;6.786;2023-08-17T06:53:30;18.70;99.90
26378;DHT22;14078;50.974;6.786;2023-08-17T06:55:56;18.70;99.90
26378;DHT22;14078;50.974;6.786;2023-08-17T06:58:23;18.80;99.90
26378;DHT22;14078;50.974;6.786;2023-08-17T07:00:49;18.70;99.90
26378;DHT22;14078;50.974;6.786;2023-08-17T07:03:16;18.80;99.90
26378;DHT22;14078;50.974;6.786;2023-08-17T07:05:42;18.90;99.90
26378;DHT22;14078;50.974;6.786;2023-08-17T07:08:10;18.90;99.90
26378;DHT22;14078;50.974;6.786;2023-08-17T07:10:36;19.10;99.90
26378;DHT22;14078;50.974;6.786;2023-08-17T07:13:03;19.20;99.90
26378;DHT22;14078;50.974;6.786;2023-08-17T07:15:29;19.20;99.90
26378;DHT22;14078;50.974;6.786;2023-08-17T07:17:56;19.30;99.90
26378;DHT22;14078;50.974;6.786;2023-08-17T07:20:22;19.40;99.90
26378;DHT22;14078;50.974;6.786;2023-08-17T07:22:49;19.50;99.90
26378;DHT22;14078;50.974;6.786;2023-08-17T07:25:17;19.50;99.90
26378;DHT22;14078;50.974;6.786;2023-08-17T07:27:43;19.40;99.90
26378;DHT22;14078;50.974;6.786;2023-08-17T07:30:10;19.40;99.90
26378;DHT22;14078;50.974;6.786;2023-08-17T07:32:37;19.40;99.90
26378;DHT22;14078;50.974;6.786;2023-08-17T07:35:04;19.50;99.90
26378;DHT22;14078;50.974;6.786;2023-08-17T07:37:31;19.50;99.90
26378;DHT22;14078;50.974;6.786;2023-08-17T07:39:58;19.60;99.90
26378;DHT22;14078;50.974;6.786;2023-08-17T07:42:26;19.60;99.90
26378;DHT22;14078;50.974;6.786;2023-08-17T07:44:53;19.60;99.90
26378;DHT22;14078;50.974;6.786;2023-08-17T07:47:19;19.50;99.90
26378;DHT22;14078;50.974;6.786;2023-08-17T07:49:46;19.60;99.90
26378;DHT22;14078;50.974;6.786;2023-08-17T07:52:12;19.50;99.90
26378;DHT22;14078;50.974;6.786;2023-08-17T07:54:39;19.40;99.90
26378;DHT22;14078;50.974;6.786;2023-08-17T07:57:05;19.40;99.90
26378;DHT22;14078;50.974;6.786;2023-08-17T07:59:33;19.30;99.90
26378;DHT22;14078;50.974;6.786;2023-08-17T08:02:00;19.40;99.90
26378;DHT22;14078;50.974;6.786;2023-08-17T08:04:26;19.50;99.90
26378;DHT22;14078;50.974;6.786;2023-08-17T08:06:53;19.50;99.90
26378;DHT22;14078;50.974;6.786;2023-08-17T08:09:19;19.50;99.90
26378;DHT22;14078;50.974;6.786;2023-08-17T08:11:46;19.40;99.90
26378;DHT22;14078;50.974;6.786;2023-08-17T08:14:13;19.30;99.90
26378;DHT22;14078;50.974;6.786;2023-08-17T08:16:41;19.30;99.90
26378;DHT22;14078;50.974;6.786;2023-08-17T08:19:07;19.20;99.90
26378;DHT22;14078;50.974;6.786;2023-08-17T08:21:34;19.20;99.90
26378;DHT22;14078;50.974;6.786;2023-08-17T08:24:00;19.30;99.90
26378;DHT22;14078;50.974;6.786;2023-08-17T08:26:27;19.30;99.90
26378;DHT22;14078;50.974;6.786;2023-08-17T08:28:53;19.30;99.90
26378;DHT22;14078;50.974;6.786;2023-08-17T08:31:20;19.40;99.90
26378;DHT22;14078;50.974;6.786;2023-08-17T08:33:48;19.40;99.90
26378;DHT22;14078;50.974;6.786;2023-08-17T08:36:14;19.50;99.90
26378;DHT22;14078;50.974;6.786;2023-08-17T08:38:41;19.50;99.90
26378;DHT22;14078;50.974;6.786;2023-08-17T08:41:07;19.60;99.90
26378;DHT22;14078;50.974;6.786;2023-08-17T08:43:34;19.80;99.90
26378;DHT22;14078;50.974;6.786;2023-08-17T08:46:01;19.80;99.90
26378;DHT22;14078;50.974;6.786;2023-08-17T08:48:28;19.80;99.90
26378;DHT22;14078;50.974;6.786;2023-08-17T08:50:56;19.80;99.90
26378;DHT22;14078;50.974;6.786;2023-08-17T08:53:28;19.90;99.90
26378;DHT22;14078;50.974;6.786;2023-08-17T08:55:57;19.90;99.90
26378;DHT22;14078;50.974;6.786;2023-08-17T08:58:24;20.00;99.90
26378;DHT22;14078;50.974;6.786;2023-08-17T09:00:51;20.10;99.90
26378;DHT22;14078;50.974;6.786;2023-08-17T09:03:18;20.10;99.90
26378;DHT22;14078;50.974;6.786;2023-08-17T09:05:46;20.20;99.90
26378;DHT22;14078;50.974;6.786;2023-08-17T09:08:14;20.10;99.90
26378;DHT22;14078;50.974;6.786;2023-08-17T09:10:41;20.10;99.90
26378;DHT22;14078;50.974;6.786;2023-08-17T09:13:07;20.20;99.90
26378;DHT22;14078;50.974;6.786;2023-08-17T09:15:35;20.20;99.90
26378;DHT22;14078;50.974;6.786;2023-08-17T09:18:01;20.20;99.90
26378;DHT22;14078;50.974;6.786;2023-08-17T09:20:34;20.20;99.90
26378;DHT22;14078;50.974;6.786;2023-08-17T09:23:02;20.10;99.90
26378;DHT22;14078;50.974;6.786;2023-08-17T09:25:30;20.10;99.90
26378;DHT22;14078;50.974;6.786;2023-08-17T09:27:59;20.10;99.90
26378;DHT22;14078;50.974;6.786;2023-08-17T09:30:25;20.10;99.90
26378;DHT22;14078;50.974;6.786;2023-08-17T09:32:52;20.20;99.90
26378;DHT22;14078;50.974;6.786;2023-08-17T09:35:18;20.30;99.90
26378;DHT22;14078;50.974;6.786;2023-08-17T09:37:45;20.30;99.90
26378;DHT22;14078;50.974;6.786;2023-08-17T09:40:11;20.30;99.90
26378;DHT22;14078;50.974;6.786;2023-08-17T09:42:39;20.30;99.90
26378;DHT22;14078;50.974;6.786;2023-08-17T09:45:07;20.30;99.90
26378;DHT22;14078;50.974;6.786;2023-08-17T09:47:33;20.40;99.90
26378;DHT22;14078;50.974;6.786;2023-08-17T09:50:02;20.40;99.90
26378;DHT22;14078;50.974;6.786;2023-08-17T09:52:31;20.30;99.90
26378;DHT22;14078;50.974;6.786;2023-08-17T09:54:58;20.40;99.90
26378;DHT22;14078;50.974;6.786;2023-08-17T09:57:29;20.30;99.90
26378;DHT22;14078;50.974;6.786;2023-08-17T10:00:00;20.40;99.90
26378;DHT22;14078;50.974;6.786;2023-08-17T10:02:26;20.50;99.90
26378;DHT22;14078;50.974;6.786;2023-08-17T10:04:55;20.50;99.90
26378;DHT22;14078;50.974;6.786;2023-08-17T10:07:24;20.60;99.90
26378;DHT22;14078;50.974;6.786;2023-08-17T10:09:55;20.80;99.90
26378;DHT22;14078;50.974;6.786;2023-08-17T10:12:23;20.90;99.90
26378;DHT22;14078;50.974;6.786;2023-08-17T10:14:53;21.00;99.90
26378;DHT22;14078;50.974;6.786;2023-08-17T10:17:24;21.00;99.90
26378;DHT22;14078;50.974;6.786;2023-08-17T10:19:52;21.00;99.90
26378;DHT22;14078;50.974;6.786;2023-08-17T10:22:20;20.90;99.90
26378;DHT22;14078;50.974;6.786;2023-08-17T10:24:49;21.00;99.90
26378;DHT22;14078;50.974;6.786;2023-08-17T10:27:17;21.00;99.90
26378;DHT22;14078;50.974;6.786;2023-08-17T10:29:45;20.90;99.90
26378;DHT22;14078;50.974;6.786;2023-08-17T10:32:11;21.00;99.90
26378;DHT22;14078;50.974;6.786;2023-08-17T10:34:39;21.00;99.90
26378;DHT22;14078;50.974;6.786;2023-08-17T10:37:06;21.00;99.90
26378;DHT22;14078;50.974;6.786;2023-08-17T10:39:33;21.10;99.90
26378;DHT22;14078;50.974;6.786;2023-08-17T10:42:00;21.10;99.90
26378;DHT22;14078;50.974;6.786;2023-08-17T10:44:43;21.10;99.90
26378;DHT22;14078;50.974;6.786;2023-08-17T10:47:20;21.10;99.90
26378;DHT22;14078;50.974;6.786;2023-08-17T10:49:49;21.10;99.90
26378;DHT22;14078;50.974;6.786;2023-08-17T10:52:19;21.10;99.90
26378;DHT22;14078;50.974;6.786;2023-08-17T10:54:50;21.00;99.90
26378;DHT22;14078;50.974;6.786;2023-08-17T10:57:30;20.90;99.90
26378;DHT22;14078;50.974;6.786;2023-08-17T11:02:52;20.80;99.90
26378;DHT22;14078;50.974;6.786;2023-08-17T11:05:38;20.90;99.90
26378;DHT22;14078;50.974;6.786;2023-08-17T11:08:05;20.80;99.90
26378;DHT22;14078;50.974;6.786;2023-08-17T11:10:32;20.80;99.90
26378;DHT22;14078;50.974;6.786;2023-08-17T11:12:58;20.80;99.90
26378;DHT22;14078;50.974;6.786;2023-08-17T11:15:34;20.80;99.90
26378;DHT22;14078;50.974;6.786;2023-08-17T11:18:03;20.90;99.90
26378;DHT22;14078;50.974;6.786;2023-08-17T11:20:29;20.90;99.90
26378;DHT22;14078;50.974;6.786;2023-08-17T11:22:58;21.00;99.90
26378;DHT22;14078;50.974;6.786;2023-08-17T11:25:25;21.00;99.90
26378;DHT22;14078;50.974;6.786;2023-08-17T11:27:52;20.90;99.90
26378;DHT22;14078;50.974;6.786;2023-08-17T11:30:18;21.00;99.90
26378;DHT22;14078;50.974;6.786;2023-08-17T11:32:46;20.90;99.90
26378;DHT22;14078;50.974;6.786;2023-08-17T11:35:12;20.90;99.90
26378;DHT22;14078;50.974;6.786;2023-08-17T11:37:39;20.80;99.90
26378;DHT22;14078;50.974;6.786;2023-08-17T11:40:07;20.90;99.90
26378;DHT22;14078;50.974;6.786;2023-08-17T11:42:35;20.90;99.90
26378;DHT22;14078;50.974;6.786;2023-08-17T11:45:02;20.90;99.90
26378;DHT22;14078;50.974;6.786;2023-08-17T11:47:29;20.90;99.90
26378;DHT22;14078;50.974;6.786;2023-08-17T11:49:58;20.90;99.90
26378;DHT22;14078;50.974;6.786;2023-08-17T11:52:25;21.00;99.90
26378;DHT22;14078;50.974;6.786;2023-08-17T11:54:54;21.00;99.90
26378;DHT22;14078;50.974;6.786;2023-08-17T11:57:22;21.00;99.90
26378;DHT22;14078;50.974;6.786;2023-08-17T11:59:48;21.10;99.90
26378;DHT22;14078;50.974;6.786;2023-08-17T12:02:18;21.10;99.90
26378;DHT22;14078;50.974;6.786;2023-08-17T12:04:45;21.10;99.90
26378;DHT22;14078;50.974;6.786;2023-08-17T12:07:11;21.10;99.90
26378;DHT22;14078;50.974;6.786;2023-08-17T12:09:38;21.20;99.90
26378;DHT22;14078;50.974;6.786;2023-08-17T12:12:04;21.20;99.90
26378;DHT22;14078;50.974;6.786;2023-08-17T12:14:32;21.30;99.90
26378;DHT22;14078;50.974;6.786;2023-08-17T12:16:59;21.30;99.90
26378;DHT22;14078;50.974;6.786;2023-08-17T12:19:25;21.50;99.90
26378;DHT22;14078;50.974;6.786;2023-08-17T12:21:52;21.70;99.90
26378;DHT22;14078;50.974;6.786;2023-08-17T12:24:18;21.90;99.90
26378;DHT22;14078;50.974;6.786;2023-08-17T12:26:46;22.10;99.90
26378;DHT22;14078;50.974;6.786;2023-08-17T12:29:12;22.30;99.90
26378;DHT22;14078;50.974;6.786;2023-08-17T12:31:40;22.40;99.90
26378;DHT22;14078;50.974;6.786;2023-08-17T12:34:07;22.50;99.90
26378;DHT22;14078;50.974;6.786;2023-08-17T12:36:34;22.50;99.90
26378;DHT22;14078;50.974;6.786;2023-08-17T12:39:01;22.60;99.90
26378;DHT22;14078;50.974;6.786;2023-08-17T12:41:29;22.60;99.90
26378;DHT22;14078;50.974;6.786;2023-08-17T12:43:55;22.70;99.90
26378;DHT22;14078;50.974;6.786;2023-08-17T12:46:24;22.80;99.90
26378;DHT22;14078;50.974;6.786;2023-08-17T12:48:52;22.80;99.90
26378;DHT22;14078;50.974;6.786;2023-08-17T12:51:18;22.80;99.90
26378;DHT22;14078;50.974;6.786;2023-08-17T12:53:45;22.80;99.90
26378;DHT22;14078;50.974;6.786;2023-08-17T12:56:11;22.70;99.90
26378;DHT22;14078;50.974;6.786;2023-08-17T12:58:38;22.70;99.90
26378;DHT22;14078;50.974;6.786;2023-08-17T13:01:04;22.50;99.90
26378;DHT22;14078;50.974;6.786;2023-08-17T13:03:31;22.50;99.90
26378;DHT22;14078;50.974;6.786;2023-08-17T13:05:59;22.40;99.90
26378;DHT22;14078;50.974;6.786;2023-08-17T13:08:25;22.30;99.90
26378;DHT22;14078;50.974;6.786;2023-08-17T13:10:52;22.20;99.90
26378;DHT22;14078;50.974;6.786;2023-08-17T13:13:18;22.20;99.90
26378;DHT22;14078;50.974;6.786;2023-08-17T13:15:45;22.20;99.90
26378;DHT22;14078;50.974;6.786;2023-08-17T13:18:11;22.20;99.90
26378;DHT22;14078;50.974;6.786;2023-08-17T13:20:38;22.20;99.90
26378;DHT22;14078;50.974;6.786;2023-08-17T13:23:06;22.20;99.90
26378;DHT22;14078;50.974;6.786;2023-08-17T13:25:33;22.20;99.90
26378;DHT22;14078;50.974;6.786;2023-08-17T13:27:59;22.30;99.90
26378;DHT22;14078;50.974;6.786;2023-08-17T13:30:26;22.30;99.90
26378;DHT22;14078;50.974;6.786;2023-08-17T13:32:53;22.50;99.90
26378;DHT22;14078;50.974;6.786;2023-08-17T13:35:19;22.50;99.90
26378;DHT22;14078;50.974;6.786;2023-08-17T13:37:49;22.50;99.90
26378;DHT22;14078;50.974;6.786;2023-08-17T13:40:18;22.60;99.90
26378;DHT22;14078;50.974;6.786;2023-08-17T13:42:44;22.60;99.90
26378;DHT22;14078;50.974;6.786;2023-08-17T13:45:11;22.80;99.90
26378;DHT22;14078;50.974;6.786;2023-08-17T13:47:37;22.80;99.90
26378;DHT22;14078;50.974;6.786;2023-08-17T13:50:04;23.00;99.90
26378;DHT22;14078;50.974;6.786;2023-08-17T13:52:31;23.20;99.90
26378;DHT22;14078;50.974;6.786;2023-08-17T13:54:57;23.40;99.90
26378;DHT22;14078;50.974;6.786;2023-08-17T13:57:25;23.50;99.90
26378;DHT22;14078;50.974;6.786;2023-08-17T13:59:52;23.60;99.90
26378;DHT22;14078;50.974;6.786;2023-08-17T14:02:18;23.80;99.90
26378;DHT22;14078;50.974;6.786;2023-08-17T14:04:45;24.00;96.00
26378;DHT22;14078;50.974;6.786;2023-08-17T14:07:11;24.10;93.20
26378;DHT22;14078;50.974;6.786;2023-08-17T14:09:38;24.30;90.70
26378;DHT22;14078;50.974;6.786;2023-08-17T14:12:04;24.30;86.00
26378;DHT22;14078;50.974;6.786;2023-08-17T14:14:32;24.10;90.60
26378;DHT22;14078;50.974;6.786;2023-08-17T14:16:59;24.10;90.30
26378;DHT22;14078;50.974;6.786;2023-08-17T14:19:25;24.00;99.90
26378;DHT22;14078;50.974;6.786;2023-08-17T14:21:52;24.10;99.90
26378;DHT22;14078;50.974;6.786;2023-08-17T14:24:19;24.20;99.90
26378;DHT22;14078;50.974;6.786;2023-08-17T14:26:45;24.00;98.80
26378;DHT22;14078;50.974;6.786;2023-08-17T14:29:12;24.00;99.90
26378;DHT22;14078;50.974;6.786;2023-08-17T14:31:40;24.10;99.90
26378;DHT22;14078;50.974;6.786;2023-08-17T14:34:06;24.10;99.90
26378;DHT22;14078;50.974;6.786;2023-08-17T14:36:33;24.00;99.90
26378;DHT22;14078;50.974;6.786;2023-08-17T14:38:59;23.90;99.90
26378;DHT22;14078;50.974;6.786;2023-08-17T14:41:26;23.80;99.90
26378;DHT22;14078;50.974;6.786;2023-08-17T14:43:56;23.80;99.90
26378;DHT22;14078;50.974;6.786;2023-08-17T14:46:23;23.90;99.90
26378;DHT22;14078;50.974;6.786;2023-08-17T14:48:51;24.10;99.90
26378;DHT22;14078;50.974;6.786;2023-08-17T14:51:18;24.30;99.90
26378;DHT22;14078;50.974;6.786;2023-08-17T14:53:44;24.40;90.80
26378;DHT22;14078;50.974;6.786;2023-08-17T14:56:11;24.40;93.00
26378;DHT22;14078;50.974;6.786;2023-08-17T14:58:37;24.40;99.30
26378;DHT22;14078;50.974;6.786;2023-08-17T15:01:04;24.30;99.90
26378;DHT22;14078;50.974;6.786;2023-08-17T15:03:30;23.90;99.90
26378;DHT22;14078;50.974;6.786;2023-08-17T15:05:58;24.00;99.30
26378;DHT22;14078;50.974;6.786;2023-08-17T15:08:25;24.30;99.90
26378;DHT22;14078;50.974;6.786;2023-08-17T15:10:51;24.70;81.90
26378;DHT22;14078;50.974;6.786;2023-08-17T15:13:18;24.70;61.10
26378;DHT22;14078;50.974;6.786;2023-08-17T15:15:45;24.80;64.90
26378;DHT22;14078;50.974;6.786;2023-08-17T15:18:11;24.60;75.30
26378;DHT22;14078;50.974;6.786;2023-08-17T15:20:38;24.40;60.20
26378;DHT22;14078;50.974;6.786;2023-08-17T15:23:06;24.30;99.90
26378;DHT22;14078;50.974;6.786;2023-08-17T15:25:32;24.20;75.40
26378;DHT22;14078;50.974;6.786;2023-08-17T15:27:59;24.50;75.50
26378;DHT22;14078;50.974;6.786;2023-08-17T15:30:25;24.80;61.10
26378;DHT22;14078;50.974;6.786;2023-08-17T15:32:52;25.20;80.60